Terminal Aerodrome Forecast
Issued by NWS Austin/San Antonio, TX

Current Version | Previous Version | Text Only | Print | Product List | Glossary Off
Versions: 1 2 3 4 5 6 7 8 9 10 11 12 13

000
FTUS44 KEWX 271100
TAFAUS
TAF
KAUS 271126Z 2712/2818 36007KT P6SM SKC
     FM271600 04008KT P6SM SKC
     FM272200 08007KT P6SM SKC
     FM280600 17004KT P6SM SCT020
     FM281300 19006KT P6SM BKN015=

USA.gov is the U.S. government's official web portal to all federal, state and local government web resources and services.